createdAt,value
2018-09-29T00:01:37.167Z,6.23
2018-09-29T00:04:05.220Z,3.90
2018-09-29T00:06:33.251Z,4.07
2018-09-29T00:09:01.261Z,10.40
2018-09-29T00:11:29.357Z,4.17
2018-09-29T00:13:57.567Z,4.27
2018-09-29T00:16:25.610Z,4.83
2018-09-29T00:18:53.616Z,4.80
2018-09-29T00:21:21.951Z,5.17
2018-09-29T00:23:50.646Z,3.23
2018-09-29T00:26:19.111Z,7.77
2018-09-29T00:28:47.607Z,4.07
2018-09-29T00:31:15.580Z,4.37
2018-09-29T00:33:43.558Z,3.77
2018-09-29T00:36:11.560Z,8.37
2018-09-29T00:38:39.482Z,3.07
2018-09-29T00:41:07.653Z,4.57
2018-09-29T00:43:35.709Z,3.40
2018-09-29T00:46:03.702Z,7.00
2018-09-29T00:48:31.685Z,3.97
2018-09-29T00:50:59.689Z,5.90
2018-09-29T00:53:27.814Z,3.67
2018-09-29T00:55:55.827Z,3.40
2018-09-29T00:58:23.875Z,3.60
2018-09-29T01:00:52.136Z,4.67
2018-09-29T01:03:20.141Z,2.30
2018-09-29T01:05:48.131Z,4.00
2018-09-29T01:08:16.305Z,4.43
2018-09-29T01:10:44.358Z,3.73
2018-09-29T01:13:12.452Z,3.33
2018-09-29T01:15:40.439Z,5.57
2018-09-29T01:18:08.645Z,5.83
2018-09-29T01:20:36.930Z,5.00
2018-09-29T01:23:04.988Z,4.57
2018-09-29T01:25:33.037Z,2.83
2018-09-29T01:28:01.107Z,3.80
2018-09-29T01:30:29.175Z,4.27
2018-09-29T01:32:57.312Z,5.73
2018-09-29T01:35:26.530Z,3.10
2018-09-29T01:37:54.550Z,3.20
2018-09-29T01:40:22.617Z,4.30
2018-09-29T01:42:50.621Z,4.83
2018-09-29T01:45:18.625Z,4.83
2018-09-29T01:47:46.678Z,2.87
2018-09-29T01:50:14.701Z,4.93
2018-09-29T01:52:42.724Z,5.73
2018-09-29T01:55:10.725Z,2.40
2018-09-29T01:57:38.774Z,5.17
2018-09-29T02:00:07.922Z,5.23
2018-09-29T02:02:36.140Z,4.27
2018-09-29T02:05:04.389Z,3.23
2018-09-29T02:07:33.606Z,5.87
2018-09-29T02:10:04.101Z,2.60
2018-09-29T02:12:32.207Z,3.80
2018-09-29T02:15:00.285Z,3.50
2018-09-29T02:17:28.340Z,4.90
2018-09-29T02:19:56.689Z,4.83
2018-09-29T02:22:24.828Z,5.03
2018-09-29T02:24:52.902Z,4.03
2018-09-29T02:27:20.910Z,3.73
2018-09-29T02:29:49.001Z,4.10
2018-09-29T02:32:17.092Z,4.20
2018-09-29T02:34:45.145Z,4.00
2018-09-29T02:37:13.209Z,5.00
2018-09-29T02:39:41.489Z,4.60
2018-09-29T02:42:10.264Z,3.33
2018-09-29T02:44:38.757Z,4.20
2018-09-29T02:47:06.806Z,3.67
2018-09-29T02:49:34.827Z,3.80
2018-09-29T02:52:02.835Z,3.70
2018-09-29T02:54:30.872Z,3.30
2018-09-29T02:56:58.846Z,2.83
2018-09-29T02:59:26.873Z,3.67
2018-09-29T03:01:54.884Z,3.27
2018-09-29T03:04:22.947Z,2.87
2018-09-29T03:06:51.044Z,3.37
2018-09-29T03:09:19.175Z,3.67
2018-09-29T03:11:47.329Z,4.87
2018-09-29T03:14:15.304Z,3.43
2018-09-29T03:16:43.426Z,4.50
2018-09-29T03:19:11.488Z,3.73
2018-09-29T03:21:39.548Z,4.80
2018-09-29T03:24:08.389Z,2.43
2018-09-29T03:26:36.471Z,3.03
2018-09-29T03:29:04.533Z,3.70
2018-09-29T03:31:32.662Z,3.43
2018-09-29T03:34:00.874Z,4.17
2018-09-29T03:36:28.964Z,4.60
2018-09-29T03:38:57.019Z,2.60
2018-09-29T03:41:25.161Z,3.50
2018-09-29T03:43:53.701Z,3.33
2018-09-29T03:46:21.872Z,3.03
2018-09-29T03:48:50.227Z,2.53
2018-09-29T03:51:18.447Z,3.47
2018-09-29T03:53:46.522Z,4.37
2018-09-29T03:56:14.686Z,3.63
2018-09-29T03:58:42.804Z,5.07
2018-09-29T04:01:10.900Z,3.47
2018-09-29T04:03:39.040Z,14.50
2018-09-29T04:06:07.106Z,4.90
2018-09-29T04:08:35.222Z,6.60
2018-09-29T04:11:03.371Z,3.53
2018-09-29T04:13:31.413Z,3.73
2018-09-29T04:15:59.427Z,3.80
2018-09-29T04:18:27.463Z,4.50
2018-09-29T04:20:55.466Z,7.53
2018-09-29T04:23:23.683Z,6.40
2018-09-29T04:25:51.757Z,5.13
2018-09-29T04:28:19.910Z,5.40
2018-09-29T04:30:47.931Z,5.77
2018-09-29T04:33:16.033Z,5.40
2018-09-29T04:35:44.068Z,5.70
2018-09-29T04:38:12.215Z,3.33
2018-09-29T04:40:40.353Z,4.00
2018-09-29T04:43:08.480Z,6.83
2018-09-29T04:45:36.452Z,6.70
2018-09-29T04:48:04.501Z,5.70
2018-09-29T04:50:32.590Z,4.57
2018-09-29T04:53:00.799Z,4.27
2018-09-29T04:55:28.982Z,6.87
2018-09-29T04:57:57.102Z,5.63
2018-09-29T05:00:26.743Z,4.27
2018-09-29T05:02:55.051Z,3.83
2018-09-29T05:05:23.194Z,5.77
2018-09-29T05:07:51.268Z,7.37
2018-09-29T05:10:19.303Z,7.27
2018-09-29T05:12:47.351Z,4.80
2018-09-29T05:15:15.467Z,3.30
2018-09-29T05:17:43.733Z,3.40
2018-09-29T05:20:12.452Z,4.50
2018-09-29T05:22:40.659Z,4.17
2018-09-29T05:25:08.867Z,4.27
2018-09-29T05:27:36.890Z,4.63
2018-09-29T05:30:06.076Z,3.77
2018-09-29T05:32:34.500Z,4.47
2018-09-29T05:35:03.983Z,3.87
2018-09-29T05:37:33.659Z,2.97
2018-09-29T05:40:02.508Z,4.37
2018-09-29T05:42:30.749Z,3.87
2018-09-29T05:44:58.936Z,4.80
2018-09-29T05:47:27.179Z,4.50
2018-09-29T05:49:55.513Z,5.40
2018-09-29T05:52:23.769Z,3.60
2018-09-29T05:54:52.252Z,5.03
2018-09-29T05:57:20.710Z,5.33
2018-09-29T05:59:48.924Z,4.13
2018-09-29T06:02:17.161Z,7.37
2018-09-29T06:04:45.813Z,5.10
2018-09-29T06:07:14.056Z,5.50
2018-09-29T06:09:42.179Z,5.77
2018-09-29T06:12:10.358Z,6.60
2018-09-29T06:14:38.467Z,5.77
2018-09-29T06:17:07.068Z,3.40
2018-09-29T06:19:35.280Z,5.37
2018-09-29T06:22:03.448Z,9.20
2018-09-29T06:24:31.734Z,4.87
2018-09-29T06:27:00.110Z,4.37
2018-09-29T06:29:28.483Z,4.13
2018-09-29T06:31:56.611Z,5.43
2018-09-29T06:34:24.838Z,5.73
2018-09-29T06:36:53.111Z,5.03
2018-09-29T06:39:21.494Z,6.80
2018-09-29T06:41:49.604Z,8.23
2018-09-29T06:44:17.869Z,8.70
2018-09-29T06:46:46.040Z,8.60
2018-09-29T06:49:14.891Z,7.87
2018-09-29T06:51:43.353Z,6.80
2018-09-29T06:54:11.520Z,7.87
2018-09-29T06:56:39.849Z,5.87
2018-09-29T06:59:08.441Z,5.00
2018-09-29T07:01:36.717Z,7.93
2018-09-29T07:04:05.314Z,6.57
2018-09-29T07:06:35.188Z,8.90
2018-09-29T07:09:05.854Z,6.10
2018-09-29T07:11:34.544Z,7.50
2018-09-29T07:14:02.601Z,7.90
2018-09-29T07:16:30.964Z,8.37
2018-09-29T07:18:59.286Z,7.43
2018-09-29T07:21:27.538Z,8.40
2018-09-29T07:23:56.092Z,7.63
2018-09-29T07:26:24.284Z,6.83
2018-09-29T07:28:52.429Z,9.53
2018-09-29T07:31:20.907Z,10.33
2018-09-29T07:33:48.911Z,6.57
2018-09-29T07:36:17.123Z,7.77
2018-09-29T07:38:45.460Z,6.70
2018-09-29T07:41:13.708Z,5.27
2018-09-29T07:43:42.562Z,11.57
2018-09-29T07:46:11.098Z,6.47
2018-09-29T07:48:39.413Z,7.07
2018-09-29T07:51:07.758Z,7.17
2018-09-29T07:53:38.560Z,6.97
2018-09-29T07:56:06.912Z,6.23
2018-09-29T07:58:35.238Z,9.07
2018-09-29T08:01:03.622Z,7.33
2018-09-29T08:03:31.914Z,7.13
2018-09-29T08:06:00.176Z,10.03
2018-09-29T08:08:28.655Z,6.67
2018-09-29T08:10:57.241Z,10.17
2018-09-29T08:13:25.654Z,7.53
2018-09-29T08:15:55.874Z,5.67
2018-09-29T08:18:24.627Z,5.43
2018-09-29T08:20:53.061Z,7.77
2018-09-29T08:23:21.997Z,8.53
2018-09-29T08:25:50.208Z,6.50
2018-09-29T08:28:18.489Z,6.13
2018-09-29T08:30:47.538Z,7.13
2018-09-29T08:33:16.071Z,7.60
2018-09-29T08:35:44.486Z,5.50
2018-09-29T08:38:12.711Z,6.43
2018-09-29T08:40:40.917Z,7.97
2018-09-29T08:43:10.051Z,8.10
2018-09-29T08:45:38.446Z,8.70
2018-09-29T08:48:06.569Z,7.40
2018-09-29T08:50:35.003Z,7.23
2018-09-29T08:53:03.287Z,7.23
2018-09-29T08:55:32.186Z,7.90
2018-09-29T08:58:00.471Z,5.70
2018-09-29T09:00:29.058Z,8.37
2018-09-29T09:02:57.505Z,7.77
2018-09-29T09:05:26.236Z,10.07
2018-09-29T09:07:54.602Z,10.53
2018-09-29T09:10:22.891Z,6.53
2018-09-29T09:12:51.081Z,9.77
2018-09-29T09:15:19.335Z,7.27
2018-09-29T09:17:47.566Z,5.97
2018-09-29T09:20:15.682Z,8.67
2018-09-29T09:22:45.204Z,6.00
2018-09-29T09:25:15.773Z,5.80
2018-09-29T09:27:43.932Z,6.03
2018-09-29T09:30:12.177Z,10.17
2018-09-29T09:32:40.194Z,7.80
2018-09-29T09:35:08.339Z,9.70
2018-09-29T09:37:36.564Z,6.67
2018-09-29T09:40:05.107Z,8.00
2018-09-29T09:42:33.394Z,7.23
2018-09-29T09:45:01.472Z,7.23
2018-09-29T09:47:29.678Z,10.10
2018-09-29T09:49:57.882Z,11.80
2018-09-29T09:52:26.105Z,8.90
2018-09-29T09:54:54.426Z,4.77
2018-09-29T09:57:22.722Z,6.50
2018-09-29T09:59:50.976Z,6.57
2018-09-29T10:02:24.648Z,5.87
2018-09-29T10:04:53.110Z,6.60
2018-09-29T10:07:21.366Z,5.07
2018-09-29T10:09:49.582Z,6.17
2018-09-29T10:12:17.970Z,5.40
2018-09-29T10:14:46.439Z,5.07
2018-09-29T10:17:16.003Z,4.80
2018-09-29T10:19:44.491Z,5.93
2018-09-29T10:22:12.785Z,9.27
2018-09-29T10:24:41.228Z,5.63
2018-09-29T10:27:09.464Z,6.90
2018-09-29T10:29:37.696Z,4.93
2018-09-29T10:32:06.579Z,6.20
2018-09-29T10:34:34.859Z,6.10
2018-09-29T10:37:03.213Z,6.30
2018-09-29T10:39:31.926Z,7.27
2018-09-29T10:42:00.317Z,3.67
2018-09-29T10:44:28.921Z,8.60
2018-09-29T10:46:57.317Z,4.20
2018-09-29T10:49:25.877Z,6.33
2018-09-29T10:51:54.276Z,4.73
2018-09-29T10:54:22.997Z,6.20
2018-09-29T10:56:51.465Z,8.30
2018-09-29T10:59:20.204Z,5.60
2018-09-29T11:01:48.512Z,6.80
2018-09-29T11:04:16.741Z,4.70
2018-09-29T11:06:44.987Z,6.70
2018-09-29T11:09:13.097Z,3.90
2018-09-29T11:11:41.364Z,5.50
2018-09-29T11:14:09.832Z,4.07
2018-09-29T11:16:38.220Z,5.27
2018-09-29T11:19:06.835Z,4.80
2018-09-29T11:21:35.272Z,3.23
2018-09-29T11:24:04.320Z,3.37
2018-09-29T11:26:33.801Z,3.20
2018-09-29T11:29:02.902Z,5.20
2018-09-29T11:31:33.594Z,6.30
2018-09-29T11:34:03.472Z,2.70
2018-09-29T11:36:32.080Z,6.80
2018-09-29T11:39:00.275Z,4.23
2018-09-29T11:41:29.054Z,3.77
2018-09-29T11:43:58.071Z,2.83
2018-09-29T11:46:27.784Z,4.10
2018-09-29T11:48:59.391Z,2.93
2018-09-29T11:51:28.537Z,3.87
2018-09-29T11:53:56.874Z,3.40
2018-09-29T11:56:25.488Z,3.40
2018-09-29T11:58:53.669Z,3.90
2018-09-29T12:01:24.364Z,4.17
2018-09-29T12:03:55.011Z,3.73
2018-09-29T12:06:26.136Z,3.97
2018-09-29T12:08:57.261Z,6.10
2018-09-29T12:11:26.839Z,4.03
2018-09-29T12:13:55.438Z,4.10
2018-09-29T12:16:24.633Z,6.70
2018-09-29T12:18:53.289Z,4.87
2018-09-29T12:21:23.301Z,5.93
2018-09-29T12:23:53.495Z,5.57
2018-09-29T12:26:23.363Z,3.53
2018-09-29T12:28:53.833Z,3.23
2018-09-29T12:31:23.823Z,3.70
2018-09-29T12:33:52.664Z,3.57
2018-09-29T12:36:20.973Z,3.23
2018-09-29T12:38:51.139Z,2.80
2018-09-29T12:41:19.743Z,4.23
2018-09-29T12:43:48.147Z,3.00
2018-09-29T12:46:16.530Z,3.47
2018-09-29T12:48:46.896Z,3.03
2018-09-29T12:51:16.870Z,5.27
2018-09-29T12:53:46.296Z,2.80
2018-09-29T12:56:14.944Z,3.03
2018-09-29T12:58:43.388Z,5.37
2018-09-29T13:01:12.019Z,3.80
2018-09-29T13:03:40.972Z,4.70
2018-09-29T13:06:10.226Z,4.77
2018-09-29T13:08:39.048Z,7.10
2018-09-29T13:11:07.789Z,4.03
2018-09-29T13:13:36.941Z,6.90
2018-09-29T13:16:05.593Z,7.27
2018-09-29T13:18:34.437Z,9.60
2018-09-29T13:21:02.756Z,5.00
2018-09-29T13:23:31.343Z,2.50
2018-09-29T13:26:00.991Z,6.57
2018-09-29T13:28:29.351Z,3.80
2018-09-29T13:30:57.625Z,5.50
2018-09-29T13:33:27.846Z,4.63
2018-09-29T13:35:59.028Z,5.97
2018-09-29T13:38:27.342Z,6.03
2018-09-29T13:40:57.201Z,5.97
2018-09-29T13:43:26.848Z,4.90
2018-09-29T13:46:00.250Z,5.07
2018-09-29T13:48:32.542Z,9.23
2018-09-29T13:51:03.625Z,4.13
2018-09-29T13:53:32.249Z,3.80
2018-09-29T13:56:01.022Z,7.27
2018-09-29T13:58:29.618Z,3.30
2018-09-29T14:01:00.974Z,4.50
2018-09-29T14:03:29.835Z,4.67
2018-09-29T14:05:59.792Z,8.77
2018-09-29T14:08:28.876Z,12.37
2018-09-29T14:10:58.008Z,15.53
2018-09-29T14:13:26.467Z,8.03
2018-09-29T14:15:56.745Z,9.50
2018-09-29T14:18:26.900Z,4.57
2018-09-29T14:20:56.118Z,7.33
2018-09-29T14:23:24.675Z,3.50
2018-09-29T14:25:53.761Z,4.17
2018-09-29T14:28:24.101Z,5.43
2018-09-29T14:30:54.472Z,8.90
2018-09-29T14:33:24.876Z,5.50
2018-09-29T14:35:56.219Z,6.10
2018-09-29T14:38:29.125Z,6.27
2018-09-29T14:41:09.267Z,4.00
2018-09-29T14:43:42.023Z,5.43
2018-09-29T14:46:14.336Z,6.03
2018-09-29T14:48:47.857Z,5.30
2018-09-29T14:51:18.038Z,6.57
2018-09-29T14:53:47.010Z,10.43
2018-09-29T14:56:16.876Z,5.80
2018-09-29T14:58:47.210Z,7.77
2018-09-29T15:01:16.975Z,5.93
2018-09-29T15:03:47.425Z,5.07
2018-09-29T15:06:16.262Z,3.97
2018-09-29T15:08:47.386Z,5.37
2018-09-29T15:11:17.888Z,10.67
2018-09-29T15:13:47.043Z,10.17
2018-09-29T15:16:16.403Z,13.47
2018-09-29T15:18:45.752Z,99.60
2018-09-29T15:21:22.047Z,96.10
2018-09-29T15:23:57.399Z,92.63
2018-09-29T15:26:26.560Z,106.57
2018-09-29T15:28:55.388Z,82.77
2018-09-29T15:31:24.463Z,65.43
2018-09-29T15:33:57.429Z,43.17
2018-09-29T15:36:27.886Z,38.43
2018-09-29T15:39:07.798Z,19.57
2018-09-29T15:41:36.509Z,13.83
2018-09-29T15:44:06.806Z,10.17
2018-09-29T15:46:37.027Z,15.33
2018-09-29T15:49:06.048Z,8.17
2018-09-29T15:51:35.370Z,9.67
2018-09-29T15:54:05.382Z,10.00
2018-09-29T15:56:36.681Z,15.40
2018-09-29T15:59:05.844Z,12.23
2018-09-29T16:01:36.762Z,10.93
2018-09-29T16:04:05.413Z,10.07
2018-09-29T16:06:34.677Z,8.93
2018-09-29T16:09:07.716Z,9.97
2018-09-29T16:11:37.714Z,8.67
2018-09-29T16:14:06.940Z,8.47
2018-09-29T16:16:36.506Z,9.63
2018-09-29T16:19:06.028Z,9.80
2018-09-29T16:21:38.923Z,13.40
2018-09-29T16:24:37.794Z,9.50
2018-09-29T16:27:10.530Z,15.17
2018-09-29T16:29:39.978Z,10.90
2018-09-29T16:32:17.934Z,13.00
2018-09-29T16:34:48.325Z,11.60
2018-09-29T16:37:17.139Z,9.97
2018-09-29T16:39:46.234Z,17.57
2018-09-29T16:42:17.337Z,15.83
2018-09-29T16:44:46.790Z,12.00
2018-09-29T16:47:15.538Z,11.53
2018-09-29T16:50:14.279Z,14.10
2018-09-29T16:53:26.698Z,13.00
2018-09-29T16:56:03.024Z,13.07
2018-09-29T16:58:43.276Z,11.57
2018-09-29T17:01:12.510Z,11.20
2018-09-29T17:03:41.216Z,10.87
2018-09-29T17:06:10.353Z,13.37
2018-09-29T17:08:39.847Z,10.80
2018-09-29T17:11:09.040Z,10.20
2018-09-29T17:13:37.577Z,8.73
2018-09-29T17:16:06.855Z,11.90
2018-09-29T17:18:36.992Z,11.33
2018-09-29T17:21:06.017Z,10.80
2018-09-29T17:23:34.762Z,8.63
2018-09-29T17:26:03.229Z,9.70
2018-09-29T17:28:31.810Z,7.37
2018-09-29T17:31:02.261Z,10.37
2018-09-29T17:33:32.752Z,8.17
2018-09-29T17:36:01.912Z,11.77
2018-09-29T17:38:31.743Z,11.50
2018-09-29T17:41:02.115Z,14.47
2018-09-29T17:43:31.431Z,9.57
2018-09-29T17:46:02.087Z,11.30
2018-09-29T17:48:31.659Z,15.97
2018-09-29T17:51:02.753Z,10.43
2018-09-29T17:53:32.737Z,15.17
2018-09-29T17:56:04.166Z,11.20
2018-09-29T17:58:34.186Z,16.43
2018-09-29T18:01:10.899Z,9.97
2018-09-29T18:03:47.039Z,10.60
2018-09-29T18:06:23.129Z,10.83
2018-09-29T18:08:54.482Z,10.10
2018-09-29T18:11:26.486Z,12.83
2018-09-29T18:13:59.054Z,11.00
2018-09-29T18:16:28.967Z,11.80
2018-09-29T18:18:57.956Z,12.40
2018-09-29T18:21:27.924Z,9.27
2018-09-29T18:23:58.126Z,12.57
2018-09-29T18:26:27.393Z,12.47
2018-09-29T18:28:57.253Z,12.13
2018-09-29T18:31:33.252Z,14.30
2018-09-29T18:34:04.734Z,11.90
2018-09-29T18:36:36.446Z,13.67
2018-09-29T18:39:07.995Z,11.00
2018-09-29T18:41:37.591Z,13.10
2018-09-29T18:44:09.542Z,10.97
2018-09-29T18:46:38.802Z,12.53
2018-09-29T18:49:07.487Z,12.87
2018-09-29T18:51:36.877Z,10.00
2018-09-29T18:54:05.925Z,12.50
2018-09-29T18:56:35.447Z,14.63
2018-09-29T18:59:04.779Z,12.53
2018-09-29T19:01:35.262Z,10.37
2018-09-29T19:04:05.730Z,12.10
2018-09-29T19:06:36.012Z,13.53
2018-09-29T19:09:09.346Z,12.47
2018-09-29T19:11:39.265Z,12.07
2018-09-29T19:14:09.408Z,11.97
2018-09-29T19:16:38.917Z,12.00
2018-09-29T19:19:08.689Z,19.63
2018-09-29T19:21:37.384Z,13.43
2018-09-29T19:24:08.615Z,14.63
2018-09-29T19:26:38.406Z,14.90
2018-09-29T19:29:08.041Z,15.27
2018-09-29T19:31:36.859Z,14.40
2018-09-29T19:34:05.984Z,14.23
2018-09-29T19:36:34.830Z,14.03
2018-09-29T19:39:05.025Z,18.13
2018-09-29T19:41:34.824Z,14.90
2018-09-29T19:44:05.695Z,12.60
2018-09-29T19:46:35.956Z,11.97
2018-09-29T19:49:05.926Z,17.47
2018-09-29T19:51:34.447Z,15.17
2018-09-29T19:54:03.232Z,15.53
2018-09-29T19:56:32.834Z,17.90
2018-09-29T19:59:05.266Z,14.17
2018-09-29T20:01:35.626Z,19.63
2018-09-29T20:04:04.587Z,15.93
2018-09-29T20:06:33.957Z,15.50
2018-09-29T20:09:06.102Z,18.07
2018-09-29T20:11:37.342Z,15.30
2018-09-29T20:14:07.497Z,16.90
2018-09-29T20:16:36.173Z,15.23
2018-09-29T20:19:04.765Z,14.03
2018-09-29T20:21:33.358Z,15.17
2018-09-29T20:24:03.792Z,16.37
2018-09-29T20:26:34.001Z,16.17
2018-09-29T20:29:06.546Z,19.67
2018-09-29T20:31:41.150Z,15.73
2018-09-29T20:34:11.646Z,16.27
2018-09-29T20:36:42.272Z,22.97
2018-09-29T20:39:13.507Z,13.77
2018-09-29T20:41:43.895Z,15.40
2018-09-29T20:44:13.661Z,18.10
2018-09-29T20:46:45.395Z,17.17
2018-09-29T20:49:13.989Z,14.67
2018-09-29T20:51:42.577Z,14.50
2018-09-29T20:54:11.317Z,17.93
2018-09-29T20:56:40.806Z,16.73
2018-09-29T20:59:10.334Z,18.10
2018-09-29T21:01:38.807Z,17.37
2018-09-29T21:04:07.605Z,17.80
2018-09-29T21:06:36.818Z,16.03
2018-09-29T21:09:07.418Z,17.57
2018-09-29T21:11:36.164Z,16.63
2018-09-29T21:14:06.186Z,16.90
2018-09-29T21:16:34.943Z,17.77
2018-09-29T21:19:03.491Z,15.53
2018-09-29T21:21:31.824Z,18.10
2018-09-29T21:24:00.199Z,19.00
2018-09-29T21:26:29.756Z,18.60
2018-09-29T21:28:58.143Z,18.20
2018-09-29T21:31:26.573Z,14.63
2018-09-29T21:33:55.014Z,16.93
2018-09-29T21:36:23.660Z,17.17
2018-09-29T21:38:52.252Z,17.83
2018-09-29T21:41:20.810Z,15.63
2018-09-29T21:43:49.252Z,24.90
2018-09-29T21:46:17.685Z,16.33
2018-09-29T21:48:46.272Z,16.73
2018-09-29T21:51:14.850Z,17.53
2018-09-29T21:53:43.533Z,20.50
2018-09-29T21:56:14.228Z,17.47
2018-09-29T21:58:42.779Z,16.50
2018-09-29T22:01:16.626Z,16.27
2018-09-29T22:03:44.998Z,17.13
2018-09-29T22:06:13.457Z,16.90
2018-09-29T22:08:42.137Z,17.93
2018-09-29T22:11:10.611Z,19.30
2018-09-29T22:13:38.933Z,19.70
2018-09-29T22:16:07.604Z,18.27
2018-09-29T22:18:36.036Z,17.83
2018-09-29T22:21:04.564Z,20.60
2018-09-29T22:23:32.941Z,18.67
2018-09-29T22:26:01.534Z,21.63
2018-09-29T22:28:29.991Z,16.70
2018-09-29T22:30:58.506Z,19.73
2018-09-29T22:33:26.880Z,19.87
2018-09-29T22:35:55.408Z,17.97
2018-09-29T22:38:23.857Z,16.37
2018-09-29T22:40:52.315Z,21.77
2018-09-29T22:43:20.782Z,22.47
2018-09-29T22:45:49.140Z,16.70
2018-09-29T22:48:17.528Z,18.40
2018-09-29T22:50:46.102Z,23.63
2018-09-29T22:53:14.560Z,20.63
2018-09-29T22:55:42.939Z,16.93
2018-09-29T22:58:11.408Z,17.77
2018-09-29T23:00:39.794Z,15.23
2018-09-29T23:03:09.101Z,17.47
2018-09-29T23:05:37.723Z,18.47
2018-09-29T23:08:06.468Z,18.37
2018-09-29T23:10:34.866Z,23.47
2018-09-29T23:13:03.182Z,18.60
2018-09-29T23:15:31.734Z,20.30
2018-09-29T23:18:00.455Z,20.03
2018-09-29T23:20:28.849Z,19.70
2018-09-29T23:22:57.229Z,21.23
2018-09-29T23:25:25.691Z,19.03
2018-09-29T23:27:54.091Z,20.07
2018-09-29T23:30:22.515Z,19.73
2018-09-29T23:32:51.105Z,22.83
2018-09-29T23:35:19.660Z,21.53
2018-09-29T23:37:48.009Z,21.43
2018-09-29T23:40:16.315Z,22.17
2018-09-29T23:42:44.831Z,21.60
2018-09-29T23:45:13.145Z,18.07
2018-09-29T23:47:41.642Z,23.20
2018-09-29T23:50:10.665Z,17.57
2018-09-29T23:52:39.016Z,24.67
2018-09-29T23:55:07.497Z,24.57
2018-09-29T23:57:36.301Z,19.90
